sensor_id;sensor_type;location;lat;lon;timestamp;temperature;humidity
5520;DHT22;2782;52.362;10.012;2023-09-08T00:00:23;23.10;82.90
5520;DHT22;2782;52.362;10.012;2023-09-08T00:01:25;23.10;82.80
5520;DHT22;2782;52.362;10.012;2023-09-08T00:02:27;23.10;82.90
5520;DHT22;2782;52.362;10.012;2023-09-08T00:03:28;23.10;82.90
5520;DHT22;2782;52.362;10.012;2023-09-08T00:04:30;23.10;82.90
5520;DHT22;2782;52.362;10.012;2023-09-08T00:05:31;23.20;83.00
5520;DHT22;2782;52.362;10.012;2023-09-08T00:06:32;23.10;82.90
5520;DHT22;2782;52.362;10.012;2023-09-08T00:07:33;23.10;82.80
5520;DHT22;2782;52.362;10.012;2023-09-08T00:08:34;23.10;82.80
5520;DHT22;2782;52.362;10.012;2023-09-08T00:09:35;23.10;82.80
5520;DHT22;2782;52.362;10.012;2023-09-08T00:10:37;23.10;82.80
5520;DHT22;2782;52.362;10.012;2023-09-08T00:11:38;23.10;82.80
5520;DHT22;2782;52.362;10.012;2023-09-08T00:12:38;23.10;82.80
5520;DHT22;2782;52.362;10.012;2023-09-08T00:13:40;23.10;82.80
5520;DHT22;2782;52.362;10.012;2023-09-08T00:14:41;23.10;82.70
5520;DHT22;2782;52.362;10.012;2023-09-08T00:15:43;23.10;82.70
5520;DHT22;2782;52.362;10.012;2023-09-08T00:16:46;23.20;82.80
5520;DHT22;2782;52.362;10.012;2023-09-08T00:17:48;23.10;82.70
5520;DHT22;2782;52.362;10.012;2023-09-08T00:18:49;23.10;82.60
5520;DHT22;2782;52.362;10.012;2023-09-08T00:19:51;23.10;83.40
5520;DHT22;2782;52.362;10.012;2023-09-08T00:20:52;23.10;82.60
5520;DHT22;2782;52.362;10.012;2023-09-08T00:21:53;23.10;82.70
5520;DHT22;2782;52.362;10.012;2023-09-08T00:22:54;23.10;82.80
5520;DHT22;2782;52.362;10.012;2023-09-08T00:23:55;23.10;82.70
5520;DHT22;2782;52.362;10.012;2023-09-08T00:24:57;23.10;82.70
5520;DHT22;2782;52.362;10.012;2023-09-08T00:25:57;23.10;83.50
5520;DHT22;2782;52.362;10.012;2023-09-08T00:26:59;23.10;82.80
5520;DHT22;2782;52.362;10.012;2023-09-08T00:28:00;23.10;82.80
5520;DHT22;2782;52.362;10.012;2023-09-08T00:29:02;23.10;82.80
5520;DHT22;2782;52.362;10.012;2023-09-08T00:30:03;23.10;82.90
5520;DHT22;2782;52.362;10.012;2023-09-08T00:31:05;23.10;82.80
5520;DHT22;2782;52.362;10.012;2023-09-08T00:32:07;23.10;82.80
5520;DHT22;2782;52.362;10.012;2023-09-08T00:33:09;23.10;82.80
5520;DHT22;2782;52.362;10.012;2023-09-08T00:34:09;23.10;82.80
5520;DHT22;2782;52.362;10.012;2023-09-08T00:35:12;23.10;82.90
5520;DHT22;2782;52.362;10.012;2023-09-08T00:36:13;23.10;82.90
5520;DHT22;2782;52.362;10.012;2023-09-08T00:37:15;23.10;82.90
5520;DHT22;2782;52.362;10.012;2023-09-08T00:38:16;23.10;83.00
5520;DHT22;2782;52.362;10.012;2023-09-08T00:39:17;23.10;83.00
5520;DHT22;2782;52.362;10.012;2023-09-08T00:40:18;23.10;82.90
5520;DHT22;2782;52.362;10.012;2023-09-08T00:41:19;23.10;83.10
5520;DHT22;2782;52.362;10.012;2023-09-08T00:42:20;23.10;83.10
5520;DHT22;2782;52.362;10.012;2023-09-08T00:43:21;23.10;83.00
5520;DHT22;2782;52.362;10.012;2023-09-08T00:44:22;23.10;83.00
5520;DHT22;2782;52.362;10.012;2023-09-08T00:45:23;23.10;83.10
5520;DHT22;2782;52.362;10.012;2023-09-08T00:46:24;23.10;83.10
5520;DHT22;2782;52.362;10.012;2023-09-08T00:47:29;23.10;83.20
5520;DHT22;2782;52.362;10.012;2023-09-08T00:48:30;23.10;83.20
5520;DHT22;2782;52.362;10.012;2023-09-08T00:49:31;23.10;83.20
5520;DHT22;2782;52.362;10.012;2023-09-08T00:50:33;23.10;83.10
5520;DHT22;2782;52.362;10.012;2023-09-08T00:51:34;23.10;83.10
5520;DHT22;2782;52.362;10.012;2023-09-08T00:52:38;23.10;83.10
5520;DHT22;2782;52.362;10.012;2023-09-08T00:53:39;23.10;83.10
5520;DHT22;2782;52.362;10.012;2023-09-08T00:54:41;23.10;83.20
5520;DHT22;2782;52.362;10.012;2023-09-08T00:55:42;23.10;83.20
5520;DHT22;2782;52.362;10.012;2023-09-08T00:56:44;23.10;83.20
5520;DHT22;2782;52.362;10.012;2023-09-08T00:57:47;23.10;83.80
5520;DHT22;2782;52.362;10.012;2023-09-08T00:58:48;23.10;83.20
5520;DHT22;2782;52.362;10.012;2023-09-08T00:59:49;23.10;83.30
5520;DHT22;2782;52.362;10.012;2023-09-08T01:00:51;23.10;83.30
5520;DHT22;2782;52.362;10.012;2023-09-08T01:01:52;23.10;83.30
5520;DHT22;2782;52.362;10.012;2023-09-08T01:02:55;23.10;83.20
5520;DHT22;2782;52.362;10.012;2023-09-08T01:03:56;23.10;83.40
5520;DHT22;2782;52.362;10.012;2023-09-08T01:04:58;23.10;83.30
5520;DHT22;2782;52.362;10.012;2023-09-08T01:06:00;23.10;83.30
5520;DHT22;2782;52.362;10.012;2023-09-08T01:07:02;23.10;83.40
5520;DHT22;2782;52.362;10.012;2023-09-08T01:08:04;23.10;83.50
5520;DHT22;2782;52.362;10.012;2023-09-08T01:09:06;23.10;83.40
5520;DHT22;2782;52.362;10.012;2023-09-08T01:10:08;23.10;83.40
5520;DHT22;2782;52.362;10.012;2023-09-08T01:11:10;23.10;83.40
5520;DHT22;2782;52.362;10.012;2023-09-08T01:12:11;23.10;83.40
5520;DHT22;2782;52.362;10.012;2023-09-08T01:13:11;23.10;83.40
5520;DHT22;2782;52.362;10.012;2023-09-08T01:14:13;23.10;83.50
5520;DHT22;2782;52.362;10.012;2023-09-08T01:15:14;23.10;83.60
5520;DHT22;2782;52.362;10.012;2023-09-08T01:16:15;23.10;83.50
5520;DHT22;2782;52.362;10.012;2023-09-08T01:17:16;23.10;83.40
5520;DHT22;2782;52.362;10.012;2023-09-08T01:18:19;23.10;83.50
5520;DHT22;2782;52.362;10.012;2023-09-08T01:19:21;23.10;83.60
5520;DHT22;2782;52.362;10.012;2023-09-08T01:20:26;23.10;83.60
5520;DHT22;2782;52.362;10.012;2023-09-08T01:21:55;23.10;83.60
5520;DHT22;2782;52.362;10.012;2023-09-08T01:23:11;23.10;83.70
5520;DHT22;2782;52.362;10.012;2023-09-08T01:24:34;23.10;83.70
5520;DHT22;2782;52.362;10.012;2023-09-08T01:25:44;23.10;83.70
5520;DHT22;2782;52.362;10.012;2023-09-08T01:26:48;23.10;84.40
5520;DHT22;2782;52.362;10.012;2023-09-08T01:27:51;23.00;83.70
5520;DHT22;2782;52.362;10.012;2023-09-08T01:28:53;23.00;83.80
5520;DHT22;2782;52.362;10.012;2023-09-08T01:29:56;23.00;83.70
5520;DHT22;2782;52.362;10.012;2023-09-08T01:30:57;23.00;83.70
5520;DHT22;2782;52.362;10.012;2023-09-08T01:31:59;23.10;83.80
5520;DHT22;2782;52.362;10.012;2023-09-08T01:33:01;23.00;83.80
5520;DHT22;2782;52.362;10.012;2023-09-08T01:34:04;23.00;83.70
5520;DHT22;2782;52.362;10.012;2023-09-08T01:35:07;23.10;83.70
5520;DHT22;2782;52.362;10.012;2023-09-08T01:36:08;23.10;83.70
5520;DHT22;2782;52.362;10.012;2023-09-08T01:37:10;23.10;83.80
5520;DHT22;2782;52.362;10.012;2023-09-08T01:38:11;23.00;83.70
5520;DHT22;2782;52.362;10.012;2023-09-08T01:39:13;23.00;83.80
5520;DHT22;2782;52.362;10.012;2023-09-08T01:40:14;23.10;83.90
5520;DHT22;2782;52.362;10.012;2023-09-08T01:41:17;23.10;83.80
5520;DHT22;2782;52.362;10.012;2023-09-08T01:42:18;23.10;83.80
5520;DHT22;2782;52.362;10.012;2023-09-08T01:43:18;23.10;83.70
5520;DHT22;2782;52.362;10.012;2023-09-08T01:44:20;23.10;83.70
5520;DHT22;2782;52.362;10.012;2023-09-08T01:45:21;23.00;83.60
5520;DHT22;2782;52.362;10.012;2023-09-08T01:46:23;23.10;83.80
5520;DHT22;2782;52.362;10.012;2023-09-08T01:47:23;23.00;83.80
5520;DHT22;2782;52.362;10.012;2023-09-08T01:48:24;23.10;83.80
5520;DHT22;2782;52.362;10.012;2023-09-08T01:49:25;23.00;83.70
5520;DHT22;2782;52.362;10.012;2023-09-08T01:50:26;23.00;83.80
5520;DHT22;2782;52.362;10.012;2023-09-08T01:51:28;23.10;83.90
5520;DHT22;2782;52.362;10.012;2023-09-08T01:52:28;23.00;83.80
5520;DHT22;2782;52.362;10.012;2023-09-08T01:53:30;23.10;84.00
5520;DHT22;2782;52.362;10.012;2023-09-08T01:54:31;23.10;84.00
5520;DHT22;2782;52.362;10.012;2023-09-08T01:55:32;23.10;84.00
5520;DHT22;2782;52.362;10.012;2023-09-08T01:56:34;23.00;83.90
5520;DHT22;2782;52.362;10.012;2023-09-08T01:57:36;23.00;84.00
5520;DHT22;2782;52.362;10.012;2023-09-08T01:58:37;23.00;84.10
5520;DHT22;2782;52.362;10.012;2023-09-08T01:59:37;23.10;84.20
5520;DHT22;2782;52.362;10.012;2023-09-08T02:00:39;23.00;84.10
5520;DHT22;2782;52.362;10.012;2023-09-08T02:01:40;23.10;84.30
5520;DHT22;2782;52.362;10.012;2023-09-08T02:02:41;23.10;84.30
5520;DHT22;2782;52.362;10.012;2023-09-08T02:03:42;23.10;84.30
5520;DHT22;2782;52.362;10.012;2023-09-08T02:04:44;23.00;84.30
5520;DHT22;2782;52.362;10.012;2023-09-08T02:05:45;23.10;84.40
5520;DHT22;2782;52.362;10.012;2023-09-08T02:06:46;23.10;84.40
5520;DHT22;2782;52.362;10.012;2023-09-08T02:07:47;23.10;84.40
5520;DHT22;2782;52.362;10.012;2023-09-08T02:08:49;23.00;84.30
5520;DHT22;2782;52.362;10.012;2023-09-08T02:09:50;23.00;84.40
5520;DHT22;2782;52.362;10.012;2023-09-08T02:10:52;23.00;84.30
5520;DHT22;2782;52.362;10.012;2023-09-08T02:11:54;23.00;84.20
5520;DHT22;2782;52.362;10.012;2023-09-08T02:12:55;23.00;84.30
5520;DHT22;2782;52.362;10.012;2023-09-08T02:13:56;23.00;84.30
5520;DHT22;2782;52.362;10.012;2023-09-08T02:14:58;23.00;84.30
5520;DHT22;2782;52.362;10.012;2023-09-08T02:15:58;23.10;84.50
5520;DHT22;2782;52.362;10.012;2023-09-08T02:17:00;23.00;84.50
5520;DHT22;2782;52.362;10.012;2023-09-08T02:18:00;23.00;84.50
5520;DHT22;2782;52.362;10.012;2023-09-08T02:19:02;23.00;84.40
5520;DHT22;2782;52.362;10.012;2023-09-08T02:20:03;23.00;84.60
5520;DHT22;2782;52.362;10.012;2023-09-08T02:21:05;23.00;84.50
5520;DHT22;2782;52.362;10.012;2023-09-08T02:22:06;23.00;84.60
5520;DHT22;2782;52.362;10.012;2023-09-08T02:23:07;23.00;84.60
5520;DHT22;2782;52.362;10.012;2023-09-08T02:24:08;23.00;84.70
5520;DHT22;2782;52.362;10.012;2023-09-08T02:25:10;23.00;84.60
5520;DHT22;2782;52.362;10.012;2023-09-08T02:26:10;23.00;84.70
5520;DHT22;2782;52.362;10.012;2023-09-08T02:27:13;23.00;84.70
5520;DHT22;2782;52.362;10.012;2023-09-08T02:28:14;23.00;84.70
5520;DHT22;2782;52.362;10.012;2023-09-08T02:29:16;23.00;84.60
5520;DHT22;2782;52.362;10.012;2023-09-08T02:30:17;23.00;84.60
5520;DHT22;2782;52.362;10.012;2023-09-08T02:31:18;23.00;84.60
5520;DHT22;2782;52.362;10.012;2023-09-08T02:32:19;23.00;84.60
5520;DHT22;2782;52.362;10.012;2023-09-08T02:33:21;23.00;84.70
5520;DHT22;2782;52.362;10.012;2023-09-08T02:34:21;23.00;84.70
5520;DHT22;2782;52.362;10.012;2023-09-08T02:35:23;23.00;84.90
5520;DHT22;2782;52.362;10.012;2023-09-08T02:36:24;23.00;84.80
5520;DHT22;2782;52.362;10.012;2023-09-08T02:37:26;23.00;84.70
5520;DHT22;2782;52.362;10.012;2023-09-08T02:38:27;23.00;84.50
5520;DHT22;2782;52.362;10.012;2023-09-08T02:39:28;23.00;84.60
5520;DHT22;2782;52.362;10.012;2023-09-08T02:40:29;23.00;84.60
5520;DHT22;2782;52.362;10.012;2023-09-08T02:41:31;23.00;84.50
5520;DHT22;2782;52.362;10.012;2023-09-08T02:42:33;23.00;84.40
5520;DHT22;2782;52.362;10.012;2023-09-08T02:43:34;23.00;84.50
5520;DHT22;2782;52.362;10.012;2023-09-08T02:44:35;23.00;84.40
5520;DHT22;2782;52.362;10.012;2023-09-08T02:45:37;23.00;84.40
5520;DHT22;2782;52.362;10.012;2023-09-08T02:46:37;23.00;84.60
5520;DHT22;2782;52.362;10.012;2023-09-08T02:47:39;23.00;84.50
5520;DHT22;2782;52.362;10.012;2023-09-08T02:48:40;23.00;84.50
5520;DHT22;2782;52.362;10.012;2023-09-08T02:49:41;23.00;84.30
5520;DHT22;2782;52.362;10.012;2023-09-08T02:50:44;23.00;84.30
5520;DHT22;2782;52.362;10.012;2023-09-08T02:51:44;23.00;84.40
5520;DHT22;2782;52.362;10.012;2023-09-08T02:52:46;23.00;84.30
5520;DHT22;2782;52.362;10.012;2023-09-08T02:53:47;23.00;84.40
5520;DHT22;2782;52.362;10.012;2023-09-08T02:54:48;23.00;84.30
5520;DHT22;2782;52.362;10.012;2023-09-08T02:55:49;23.00;84.30
5520;DHT22;2782;52.362;10.012;2023-09-08T02:56:51;23.00;84.30
5520;DHT22;2782;52.362;10.012;2023-09-08T02:57:53;23.00;84.30
5520;DHT22;2782;52.362;10.012;2023-09-08T02:58:55;23.00;84.40
5520;DHT22;2782;52.362;10.012;2023-09-08T02:59:56;22.90;84.40
5520;DHT22;2782;52.362;10.012;2023-09-08T03:00:58;23.00;84.50
5520;DHT22;2782;52.362;10.012;2023-09-08T03:01:59;23.00;84.50
5520;DHT22;2782;52.362;10.012;2023-09-08T03:03:01;23.00;84.30
5520;DHT22;2782;52.362;10.012;2023-09-08T03:04:02;23.00;84.40
5520;DHT22;2782;52.362;10.012;2023-09-08T03:05:04;23.00;84.40
5520;DHT22;2782;52.362;10.012;2023-09-08T03:06:04;23.00;84.50
5520;DHT22;2782;52.362;10.012;2023-09-08T03:07:07;23.00;84.60
5520;DHT22;2782;52.362;10.012;2023-09-08T03:08:08;23.00;84.70
5520;DHT22;2782;52.362;10.012;2023-09-08T03:09:10;22.90;84.60
5520;DHT22;2782;52.362;10.012;2023-09-08T03:10:11;23.00;84.70
5520;DHT22;2782;52.362;10.012;2023-09-08T03:11:13;23.00;84.60
5520;DHT22;2782;52.362;10.012;2023-09-08T03:12:14;22.90;84.40
5520;DHT22;2782;52.362;10.012;2023-09-08T03:13:16;22.90;84.30
5520;DHT22;2782;52.362;10.012;2023-09-08T03:14:17;23.00;84.60
5520;DHT22;2782;52.362;10.012;2023-09-08T03:15:18;22.90;84.40
5520;DHT22;2782;52.362;10.012;2023-09-08T03:16:20;22.90;84.40
5520;DHT22;2782;52.362;10.012;2023-09-08T03:17:20;22.90;84.40
5520;DHT22;2782;52.362;10.012;2023-09-08T03:18:22;23.00;84.30
5520;DHT22;2782;52.362;10.012;2023-09-08T03:19:23;23.00;84.40
5520;DHT22;2782;52.362;10.012;2023-09-08T03:20:25;23.00;84.50
5520;DHT22;2782;52.362;10.012;2023-09-08T03:21:26;22.90;84.30
5520;DHT22;2782;52.362;10.012;2023-09-08T03:22:27;23.00;84.50
5520;DHT22;2782;52.362;10.012;2023-09-08T03:23:28;22.90;84.40
5520;DHT22;2782;52.362;10.012;2023-09-08T03:24:30;23.00;84.50
5520;DHT22;2782;52.362;10.012;2023-09-08T03:25:30;23.00;84.50
5520;DHT22;2782;52.362;10.012;2023-09-08T03:26:31;23.00;84.60
5520;DHT22;2782;52.362;10.012;2023-09-08T03:27:33;22.90;84.60
5520;DHT22;2782;52.362;10.012;2023-09-08T03:28:36;23.00;84.50
5520;DHT22;2782;52.362;10.012;2023-09-08T03:29:39;22.90;84.50
5520;DHT22;2782;52.362;10.012;2023-09-08T03:30:39;22.90;84.40
5520;DHT22;2782;52.362;10.012;2023-09-08T03:31:40;22.90;84.30
5520;DHT22;2782;52.362;10.012;2023-09-08T03:32:42;22.90;84.30
5520;DHT22;2782;52.362;10.012;2023-09-08T03:33:42;22.90;84.50
5520;DHT22;2782;52.362;10.012;2023-09-08T03:34:44;22.90;84.50
5520;DHT22;2782;52.362;10.012;2023-09-08T03:35:45;22.90;84.40
5520;DHT22;2782;52.362;10.012;2023-09-08T03:36:45;22.90;84.10
5520;DHT22;2782;52.362;10.012;2023-09-08T03:37:48;22.90;84.00
5520;DHT22;2782;52.362;10.012;2023-09-08T03:38:48;22.90;84.80
5520;DHT22;2782;52.362;10.012;2023-09-08T03:39:50;22.90;84.20
5520;DHT22;2782;52.362;10.012;2023-09-08T03:40:51;22.90;84.30
5520;DHT22;2782;52.362;10.012;2023-09-08T03:41:52;22.90;84.30
5520;DHT22;2782;52.362;10.012;2023-09-08T03:42:53;22.90;84.30
5520;DHT22;2782;52.362;10.012;2023-09-08T03:43:56;22.90;84.30
5520;DHT22;2782;52.362;10.012;2023-09-08T03:44:57;22.90;84.20
5520;DHT22;2782;52.362;10.012;2023-09-08T03:45:58;22.90;84.30
5520;DHT22;2782;52.362;10.012;2023-09-08T03:46:59;22.90;84.20
5520;DHT22;2782;52.362;10.012;2023-09-08T03:48:01;22.90;84.10
5520;DHT22;2782;52.362;10.012;2023-09-08T03:49:02;22.90;84.10
5520;DHT22;2782;52.362;10.012;2023-09-08T03:50:04;22.90;84.10
5520;DHT22;2782;52.362;10.012;2023-09-08T03:51:06;22.90;84.10
5520;DHT22;2782;52.362;10.012;2023-09-08T03:52:08;22.90;84.30
5520;DHT22;2782;52.362;10.012;2023-09-08T03:53:08;22.90;84.30
5520;DHT22;2782;52.362;10.012;2023-09-08T03:54:11;22.90;84.30
5520;DHT22;2782;52.362;10.012;2023-09-08T03:55:11;22.90;84.40
5520;DHT22;2782;52.362;10.012;2023-09-08T03:56:12;22.90;84.30
5520;DHT22;2782;52.362;10.012;2023-09-08T03:57:14;22.90;84.20
5520;DHT22;2782;52.362;10.012;2023-09-08T03:58:14;22.90;84.30
5520;DHT22;2782;52.362;10.012;2023-09-08T03:59:18;22.90;84.20
5520;DHT22;2782;52.362;10.012;2023-09-08T04:00:19;22.90;84.30
5520;DHT22;2782;52.362;10.012;2023-09-08T04:01:22;22.90;84.30
5520;DHT22;2782;52.362;10.012;2023-09-08T04:02:23;22.90;84.30
5520;DHT22;2782;52.362;10.012;2023-09-08T04:03:24;22.90;84.30
5520;DHT22;2782;52.362;10.012;2023-09-08T04:04:25;22.90;84.30
5520;DHT22;2782;52.362;10.012;2023-09-08T04:05:27;22.90;84.30
5520;DHT22;2782;52.362;10.012;2023-09-08T04:06:27;22.90;84.40
5520;DHT22;2782;52.362;10.012;2023-09-08T04:07:30;22.90;85.00
5520;DHT22;2782;52.362;10.012;2023-09-08T04:08:31;22.90;84.20
5520;DHT22;2782;52.362;10.012;2023-09-08T04:09:33;22.90;84.20
5520;DHT22;2782;52.362;10.012;2023-09-08T04:10:33;22.90;84.30
5520;DHT22;2782;52.362;10.012;2023-09-08T04:11:35;22.90;84.20
5520;DHT22;2782;52.362;10.012;2023-09-08T04:12:36;22.90;84.20
5520;DHT22;2782;52.362;10.012;2023-09-08T04:13:37;22.90;84.20
5520;DHT22;2782;52.362;10.012;2023-09-08T04:14:39;22.90;84.30
5520;DHT22;2782;52.362;10.012;2023-09-08T04:15:41;22.90;84.20
5520;DHT22;2782;52.362;10.012;2023-09-08T04:16:42;22.90;84.20
5520;DHT22;2782;52.362;10.012;2023-09-08T04:17:43;22.90;84.20
5520;DHT22;2782;52.362;10.012;2023-09-08T04:18:44;22.90;84.30
5520;DHT22;2782;52.362;10.012;2023-09-08T04:19:46;22.90;84.30
5520;DHT22;2782;52.362;10.012;2023-09-08T04:20:46;22.90;84.30
5520;DHT22;2782;52.362;10.012;2023-09-08T04:21:48;22.90;84.40
5520;DHT22;2782;52.362;10.012;2023-09-08T04:22:49;22.90;84.20
5520;DHT22;2782;52.362;10.012;2023-09-08T04:23:51;22.90;84.20
5520;DHT22;2782;52.362;10.012;2023-09-08T04:24:51;22.90;84.20
5520;DHT22;2782;52.362;10.012;2023-09-08T04:25:54;22.90;84.40
5520;DHT22;2782;52.362;10.012;2023-09-08T04:26:55;22.90;84.40
5520;DHT22;2782;52.362;10.012;2023-09-08T04:27:55;22.90;84.30
5520;DHT22;2782;52.362;10.012;2023-09-08T04:28:57;22.90;84.50
5520;DHT22;2782;52.362;10.012;2023-09-08T04:29:59;22.90;84.40
5520;DHT22;2782;52.362;10.012;2023-09-08T04:31:01;22.90;84.50
5520;DHT22;2782;52.362;10.012;2023-09-08T04:32:01;22.90;84.30
5520;DHT22;2782;52.362;10.012;2023-09-08T04:33:09;22.90;84.60
5520;DHT22;2782;52.362;10.012;2023-09-08T04:34:09;22.90;84.70
5520;DHT22;2782;52.362;10.012;2023-09-08T04:35:12;22.90;84.80
5520;DHT22;2782;52.362;10.012;2023-09-08T04:36:12;22.90;84.80
5520;DHT22;2782;52.362;10.012;2023-09-08T04:37:15;22.90;84.70
5520;DHT22;2782;52.362;10.012;2023-09-08T04:38:16;22.90;85.30
5520;DHT22;2782;52.362;10.012;2023-09-08T04:39:19;22.90;84.80
5520;DHT22;2782;52.362;10.012;2023-09-08T04:40:20;22.80;79.40
5520;DHT22;2782;52.362;10.012;2023-09-08T04:41:22;22.70;76.00
5520;DHT22;2782;52.362;10.012;2023-09-08T04:42:22;22.70;74.00
5520;DHT22;2782;52.362;10.012;2023-09-08T04:43:23;22.60;73.00
5520;DHT22;2782;52.362;10.012;2023-09-08T04:44:25;22.60;72.40
5520;DHT22;2782;52.362;10.012;2023-09-08T04:45:27;22.50;71.70
5520;DHT22;2782;52.362;10.012;2023-09-08T04:46:29;22.40;71.60
5520;DHT22;2782;52.362;10.012;2023-09-08T04:47:29;22.40;71.60
5520;DHT22;2782;52.362;10.012;2023-09-08T04:48:31;22.40;71.60
5520;DHT22;2782;52.362;10.012;2023-09-08T04:49:32;22.30;71.50
5520;DHT22;2782;52.362;10.012;2023-09-08T04:50:34;22.20;71.40
5520;DHT22;2782;52.362;10.012;2023-09-08T04:51:35;22.20;71.90
5520;DHT22;2782;52.362;10.012;2023-09-08T04:52:36;22.10;71.90
5520;DHT22;2782;52.362;10.012;2023-09-08T04:53:37;22.10;71.80
5520;DHT22;2782;52.362;10.012;2023-09-08T04:54:39;22.10;72.00
5520;DHT22;2782;52.362;10.012;2023-09-08T04:55:40;22.00;71.80
5520;DHT22;2782;52.362;10.012;2023-09-08T04:56:41;22.00;71.50
5520;DHT22;2782;52.362;10.012;2023-09-08T04:57:42;21.90;71.20
5520;DHT22;2782;52.362;10.012;2023-09-08T04:58:44;21.90;71.00
5520;DHT22;2782;52.362;10.012;2023-09-08T04:59:44;21.80;70.80
5520;DHT22;2782;52.362;10.012;2023-09-08T05:00:46;21.80;70.90
5520;DHT22;2782;52.362;10.012;2023-09-08T05:01:48;21.80;71.00
5520;DHT22;2782;52.362;10.012;2023-09-08T05:02:49;21.70;71.00
5520;DHT22;2782;52.362;10.012;2023-09-08T05:03:51;21.70;71.30
5520;DHT22;2782;52.362;10.012;2023-09-08T05:04:51;21.60;72.30
5520;DHT22;2782;52.362;10.012;2023-09-08T05:05:53;21.60;72.20
5520;DHT22;2782;52.362;10.012;2023-09-08T05:06:54;21.50;73.30
5520;DHT22;2782;52.362;10.012;2023-09-08T05:07:56;21.50;76.70
5520;DHT22;2782;52.362;10.012;2023-09-08T05:08:57;21.50;78.00
5520;DHT22;2782;52.362;10.012;2023-09-08T05:09:59;21.40;76.90
5520;DHT22;2782;52.362;10.012;2023-09-08T05:11:00;21.40;77.10
5520;DHT22;2782;52.362;10.012;2023-09-08T05:12:02;21.40;76.70
5520;DHT22;2782;52.362;10.012;2023-09-08T05:13:03;21.40;76.50
5520;DHT22;2782;52.362;10.012;2023-09-08T05:14:05;21.40;75.70
5520;DHT22;2782;52.362;10.012;2023-09-08T05:15:06;21.30;74.90
5520;DHT22;2782;52.362;10.012;2023-09-08T05:16:16;21.30;74.70
5520;DHT22;2782;52.362;10.012;2023-09-08T05:17:19;21.30;74.90
5520;DHT22;2782;52.362;10.012;2023-09-08T05:18:21;21.30;75.80
5520;DHT22;2782;52.362;10.012;2023-09-08T05:19:21;21.20;76.20
5520;DHT22;2782;52.362;10.012;2023-09-08T05:20:24;21.20;76.30
5520;DHT22;2782;52.362;10.012;2023-09-08T05:21:25;21.20;76.50
5520;DHT22;2782;52.362;10.012;2023-09-08T05:22:26;21.10;76.60
5520;DHT22;2782;52.362;10.012;2023-09-08T05:23:27;21.10;76.60
5520;DHT22;2782;52.362;10.012;2023-09-08T05:24:29;21.10;76.40
5520;DHT22;2782;52.362;10.012;2023-09-08T05:25:30;21.10;76.30
5520;DHT22;2782;52.362;10.012;2023-09-08T05:26:31;21.10;76.40
5520;DHT22;2782;52.362;10.012;2023-09-08T05:27:33;21.10;76.40
5520;DHT22;2782;52.362;10.012;2023-09-08T05:28:35;21.10;76.10
5520;DHT22;2782;52.362;10.012;2023-09-08T05:29:36;21.10;76.10
5520;DHT22;2782;52.362;10.012;2023-09-08T05:30:37;21.10;76.00
5520;DHT22;2782;52.362;10.012;2023-09-08T05:31:39;21.00;76.50
5520;DHT22;2782;52.362;10.012;2023-09-08T05:32:41;21.10;77.30
5520;DHT22;2782;52.362;10.012;2023-09-08T05:33:42;21.10;77.50
5520;DHT22;2782;52.362;10.012;2023-09-08T05:34:44;21.10;77.40
5520;DHT22;2782;52.362;10.012;2023-09-08T05:35:45;21.00;77.30
5520;DHT22;2782;52.362;10.012;2023-09-08T05:36:47;21.00;77.30
5520;DHT22;2782;52.362;10.012;2023-09-08T05:37:48;21.10;77.40
5520;DHT22;2782;52.362;10.012;2023-09-08T05:38:50;21.00;77.30
5520;DHT22;2782;52.362;10.012;2023-09-08T05:39:50;21.00;77.40
5520;DHT22;2782;52.362;10.012;2023-09-08T05:40:52;21.00;77.40
5520;DHT22;2782;52.362;10.012;2023-09-08T05:41:53;21.00;77.60
5520;DHT22;2782;52.362;10.012;2023-09-08T05:42:54;21.00;77.80
5520;DHT22;2782;52.362;10.012;2023-09-08T05:43:55;21.00;78.00
5520;DHT22;2782;52.362;10.012;2023-09-08T05:44:57;21.00;77.90
5520;DHT22;2782;52.362;10.012;2023-09-08T05:45:58;21.10;77.90
5520;DHT22;2782;52.362;10.012;2023-09-08T05:47:00;21.10;78.50
5520;DHT22;2782;52.362;10.012;2023-09-08T05:48:03;21.10;77.90
5520;DHT22;2782;52.362;10.012;2023-09-08T05:49:04;21.10;77.80
5520;DHT22;2782;52.362;10.012;2023-09-08T05:50:07;21.10;77.90
5520;DHT22;2782;52.362;10.012;2023-09-08T05:51:07;21.10;77.70
5520;DHT22;2782;52.362;10.012;2023-09-08T05:52:09;21.10;77.80
5520;DHT22;2782;52.362;10.012;2023-09-08T05:53:10;21.10;77.90
5520;DHT22;2782;52.362;10.012;2023-09-08T05:54:12;21.10;78.00
5520;DHT22;2782;52.362;10.012;2023-09-08T05:55:12;21.10;78.30
5520;DHT22;2782;52.362;10.012;2023-09-08T05:56:14;21.10;78.40
5520;DHT22;2782;52.362;10.012;2023-09-08T05:57:16;21.10;78.40
5520;DHT22;2782;52.362;10.012;2023-09-08T05:58:17;21.10;78.80
5520;DHT22;2782;52.362;10.012;2023-09-08T05:59:18;21.10;79.00
5520;DHT22;2782;52.362;10.012;2023-09-08T06:00:20;21.20;79.30
5520;DHT22;2782;52.362;10.012;2023-09-08T06:01:23;21.20;79.60
5520;DHT22;2782;52.362;10.012;2023-09-08T06:02:26;21.20;79.60
5520;DHT22;2782;52.362;10.012;2023-09-08T06:03:26;21.30;80.00
5520;DHT22;2782;52.362;10.012;2023-09-08T06:04:28;21.30;80.20
5520;DHT22;2782;52.362;10.012;2023-09-08T06:05:32;21.30;80.20
5520;DHT22;2782;52.362;10.012;2023-09-08T06:06:34;21.30;80.40
5520;DHT22;2782;52.362;10.012;2023-09-08T06:07:34;21.30;80.50
5520;DHT22;2782;52.362;10.012;2023-09-08T06:08:36;21.30;80.50
5520;DHT22;2782;52.362;10.012;2023-09-08T06:09:37;21.40;80.60
5520;DHT22;2782;52.362;10.012;2023-09-08T06:10:38;21.40;80.90
5520;DHT22;2782;52.362;10.012;2023-09-08T06:11:39;21.40;80.90
5520;DHT22;2782;52.362;10.012;2023-09-08T06:12:41;21.40;80.90
5520;DHT22;2782;52.362;10.012;2023-09-08T06:13:43;21.40;80.90
5520;DHT22;2782;52.362;10.012;2023-09-08T06:14:45;21.50;81.00
5520;DHT22;2782;52.362;10.012;2023-09-08T06:15:46;21.50;81.00
5520;DHT22;2782;52.362;10.012;2023-09-08T06:16:47;21.50;80.90
5520;DHT22;2782;52.362;10.012;2023-09-08T06:17:49;21.50;80.80
5520;DHT22;2782;52.362;10.012;2023-09-08T06:18:51;21.60;81.00
5520;DHT22;2782;52.362;10.012;2023-09-08T06:19:52;21.60;80.90
5520;DHT22;2782;52.362;10.012;2023-09-08T06:20:53;21.60;80.80
5520;DHT22;2782;52.362;10.012;2023-09-08T06:21:54;21.60;80.80
5520;DHT22;2782;52.362;10.012;2023-09-08T06:22:56;21.60;80.70
5520;DHT22;2782;52.362;10.012;2023-09-08T06:23:56;21.70;80.70
5520;DHT22;2782;52.362;10.012;2023-09-08T06:24:58;21.70;80.70
5520;DHT22;2782;52.362;10.012;2023-09-08T06:25:59;21.70;80.70
5520;DHT22;2782;52.362;10.012;2023-09-08T06:27:01;21.70;80.70
5520;DHT22;2782;52.362;10.012;2023-09-08T06:28:03;21.70;80.70
5520;DHT22;2782;52.362;10.012;2023-09-08T06:29:04;21.80;80.80
5520;DHT22;2782;52.362;10.012;2023-09-08T06:30:07;21.80;81.00
5520;DHT22;2782;52.362;10.012;2023-09-08T06:31:08;21.80;81.00
5520;DHT22;2782;52.362;10.012;2023-09-08T06:32:10;21.80;80.90
5520;DHT22;2782;52.362;10.012;2023-09-08T06:33:12;21.80;80.80
5520;DHT22;2782;52.362;10.012;2023-09-08T06:34:14;21.80;80.70
5520;DHT22;2782;52.362;10.012;2023-09-08T06:35:14;21.80;80.70